sensor_id;sensor_type;location;lat;lon;timestamp;temperature;humidity
37340;DHT22;23223;51.006;7.610;2023-11-21T00:01:41;6.40;99.90
37340;DHT22;23223;51.006;7.610;2023-11-21T00:04:06;6.40;99.90
37340;DHT22;23223;51.006;7.610;2023-11-21T00:06:33;6.50;99.90
37340;DHT22;23223;51.006;7.610;2023-11-21T00:08:59;6.60;99.90
37340;DHT22;23223;51.006;7.610;2023-11-21T00:11:25;6.60;99.90
37340;DHT22;23223;51.006;7.610;2023-11-21T00:13:51;6.60;99.90
37340;DHT22;23223;51.006;7.610;2023-11-21T00:16:16;6.80;99.90
37340;DHT22;23223;51.006;7.610;2023-11-21T00:18:42;6.80;99.90
37340;DHT22;23223;51.006;7.610;2023-11-21T00:21:08;7.00;99.90
37340;DHT22;23223;51.006;7.610;2023-11-21T00:23:34;7.20;99.90
37340;DHT22;23223;51.006;7.610;2023-11-21T00:26:00;7.40;99.90
37340;DHT22;23223;51.006;7.610;2023-11-21T00:28:26;7.40;99.90
37340;DHT22;23223;51.006;7.610;2023-11-21T00:30:52;7.30;99.90
37340;DHT22;23223;51.006;7.610;2023-11-21T00:33:17;7.20;99.90
37340;DHT22;23223;51.006;7.610;2023-11-21T00:35:43;7.10;99.90
37340;DHT22;23223;51.006;7.610;2023-11-21T00:38:08;7.00;99.90
37340;DHT22;23223;51.006;7.610;2023-11-21T00:40:34;6.90;99.90
37340;DHT22;23223;51.006;7.610;2023-11-21T00:42:59;6.80;99.90
37340;DHT22;23223;51.006;7.610;2023-11-21T00:45:26;6.80;99.90
37340;DHT22;23223;51.006;7.610;2023-11-21T00:47:51;6.70;99.90
37340;DHT22;23223;51.006;7.610;2023-11-21T00:50:17;6.70;99.90
37340;DHT22;23223;51.006;7.610;2023-11-21T00:52:42;6.70;99.90
37340;DHT22;23223;51.006;7.610;2023-11-21T00:55:08;6.60;99.90
37340;DHT22;23223;51.006;7.610;2023-11-21T00:57:34;6.50;99.90
37340;DHT22;23223;51.006;7.610;2023-11-21T01:00:00;6.50;99.90
37340;DHT22;23223;51.006;7.610;2023-11-21T01:02:26;6.40;99.90
37340;DHT22;23223;51.006;7.610;2023-11-21T01:04:51;6.40;99.90
37340;DHT22;23223;51.006;7.610;2023-11-21T01:07:17;6.30;99.90
37340;DHT22;23223;51.006;7.610;2023-11-21T01:09:46;6.50;99.90
37340;DHT22;23223;51.006;7.610;2023-11-21T01:12:11;6.70;99.90
37340;DHT22;23223;51.006;7.610;2023-11-21T01:14:37;6.70;99.90
37340;DHT22;23223;51.006;7.610;2023-11-21T01:17:02;6.60;99.90
37340;DHT22;23223;51.006;7.610;2023-11-21T01:19:30;6.50;99.90
37340;DHT22;23223;51.006;7.610;2023-11-21T01:21:55;6.50;99.90
37340;DHT22;23223;51.006;7.610;2023-11-21T01:24:23;6.40;99.90
37340;DHT22;23223;51.006;7.610;2023-11-21T01:26:49;6.40;99.90
37340;DHT22;23223;51.006;7.610;2023-11-21T01:29:14;6.40;99.90
37340;DHT22;23223;51.006;7.610;2023-11-21T01:31:40;6.30;99.90
37340;DHT22;23223;51.006;7.610;2023-11-21T01:34:07;6.30;99.90
37340;DHT22;23223;51.006;7.610;2023-11-21T01:36:33;6.40;99.90
37340;DHT22;23223;51.006;7.610;2023-11-21T01:38:59;6.60;99.90
37340;DHT22;23223;51.006;7.610;2023-11-21T01:41:28;6.70;99.90
37340;DHT22;23223;51.006;7.610;2023-11-21T01:43:55;6.70;99.90
37340;DHT22;23223;51.006;7.610;2023-11-21T01:46:21;6.60;99.90
37340;DHT22;23223;51.006;7.610;2023-11-21T01:48:48;6.60;99.90
37340;DHT22;23223;51.006;7.610;2023-11-21T01:51:14;6.50;99.90
37340;DHT22;23223;51.006;7.610;2023-11-21T01:53:40;6.50;99.90
37340;DHT22;23223;51.006;7.610;2023-11-21T01:56:06;6.50;99.90
37340;DHT22;23223;51.006;7.610;2023-11-21T01:58:33;6.60;99.90
37340;DHT22;23223;51.006;7.610;2023-11-21T02:00:59;6.50;99.90
37340;DHT22;23223;51.006;7.610;2023-11-21T02:03:25;6.50;99.90
37340;DHT22;23223;51.006;7.610;2023-11-21T02:05:52;6.40;99.90
37340;DHT22;23223;51.006;7.610;2023-11-21T02:08:19;6.40;99.90
37340;DHT22;23223;51.006;7.610;2023-11-21T02:10:45;6.30;99.90
37340;DHT22;23223;51.006;7.610;2023-11-21T02:13:11;6.30;99.90
37340;DHT22;23223;51.006;7.610;2023-11-21T02:15:37;6.30;99.90
37340;DHT22;23223;51.006;7.610;2023-11-21T02:18:04;6.30;99.90
37340;DHT22;23223;51.006;7.610;2023-11-21T02:20:31;6.30;99.90
37340;DHT22;23223;51.006;7.610;2023-11-21T02:23:00;6.30;99.90
37340;DHT22;23223;51.006;7.610;2023-11-21T02:25:31;6.30;99.90
37340;DHT22;23223;51.006;7.610;2023-11-21T02:28:02;6.30;99.90
37340;DHT22;23223;51.006;7.610;2023-11-21T02:30:28;6.30;99.90
37340;DHT22;23223;51.006;7.610;2023-11-21T02:32:54;6.30;99.90
37340;DHT22;23223;51.006;7.610;2023-11-21T02:35:22;6.30;99.90
37340;DHT22;23223;51.006;7.610;2023-11-21T02:37:49;6.30;99.90
37340;DHT22;23223;51.006;7.610;2023-11-21T02:40:14;6.30;99.90
37340;DHT22;23223;51.006;7.610;2023-11-21T02:42:44;6.30;99.90
37340;DHT22;23223;51.006;7.610;2023-11-21T02:45:09;6.40;99.90
37340;DHT22;23223;51.006;7.610;2023-11-21T02:47:38;6.40;99.90
37340;DHT22;23223;51.006;7.610;2023-11-21T02:50:04;6.30;99.90
37340;DHT22;23223;51.006;7.610;2023-11-21T02:52:31;6.30;99.90
37340;DHT22;23223;51.006;7.610;2023-11-21T02:54:58;6.40;99.90
37340;DHT22;23223;51.006;7.610;2023-11-21T02:57:24;6.40;99.90
37340;DHT22;23223;51.006;7.610;2023-11-21T02:59:49;6.50;99.90
37340;DHT22;23223;51.006;7.610;2023-11-21T03:02:15;6.80;99.90
37340;DHT22;23223;51.006;7.610;2023-11-21T03:04:41;6.80;99.90
37340;DHT22;23223;51.006;7.610;2023-11-21T03:07:08;6.80;99.90
37340;DHT22;23223;51.006;7.610;2023-11-21T03:09:34;6.70;99.90
37340;DHT22;23223;51.006;7.610;2023-11-21T03:12:00;6.60;99.90
37340;DHT22;23223;51.006;7.610;2023-11-21T03:14:26;6.60;99.90
37340;DHT22;23223;51.006;7.610;2023-11-21T03:16:51;6.50;99.90
37340;DHT22;23223;51.006;7.610;2023-11-21T03:19:17;6.50;99.90
37340;DHT22;23223;51.006;7.610;2023-11-21T03:21:42;6.60;99.90
37340;DHT22;23223;51.006;7.610;2023-11-21T03:24:09;6.80;99.90
37340;DHT22;23223;51.006;7.610;2023-11-21T03:26:34;7.20;99.90
37340;DHT22;23223;51.006;7.610;2023-11-21T03:29:00;7.40;99.90
37340;DHT22;23223;51.006;7.610;2023-11-21T03:31:26;7.40;99.90
37340;DHT22;23223;51.006;7.610;2023-11-21T03:33:52;7.30;99.90
37340;DHT22;23223;51.006;7.610;2023-11-21T03:36:19;7.20;99.90
37340;DHT22;23223;51.006;7.610;2023-11-21T03:38:45;7.00;99.90
37340;DHT22;23223;51.006;7.610;2023-11-21T03:41:10;6.90;99.90
37340;DHT22;23223;51.006;7.610;2023-11-21T03:43:37;6.90;99.90
37340;DHT22;23223;51.006;7.610;2023-11-21T03:46:03;6.80;99.90
37340;DHT22;23223;51.006;7.610;2023-11-21T03:48:29;6.70;99.90
37340;DHT22;23223;51.006;7.610;2023-11-21T03:50:54;6.70;99.90
37340;DHT22;23223;51.006;7.610;2023-11-21T03:53:20;6.70;99.90
37340;DHT22;23223;51.006;7.610;2023-11-21T03:55:46;6.70;99.90
37340;DHT22;23223;51.006;7.610;2023-11-21T03:58:11;6.70;99.90
37340;DHT22;23223;51.006;7.610;2023-11-21T04:00:37;6.60;99.90
37340;DHT22;23223;51.006;7.610;2023-11-21T04:03:02;6.60;99.90
37340;DHT22;23223;51.006;7.610;2023-11-21T04:05:28;6.50;99.90
37340;DHT22;23223;51.006;7.610;2023-11-21T04:07:54;6.50;99.90
37340;DHT22;23223;51.006;7.610;2023-11-21T04:10:20;6.60;99.90
37340;DHT22;23223;51.006;7.610;2023-11-21T04:12:45;6.80;99.90
37340;DHT22;23223;51.006;7.610;2023-11-21T04:15:11;7.10;99.90
37340;DHT22;23223;51.006;7.610;2023-11-21T04:17:39;7.20;99.90
37340;DHT22;23223;51.006;7.610;2023-11-21T04:20:05;7.20;99.90
37340;DHT22;23223;51.006;7.610;2023-11-21T04:22:42;7.10;99.90
37340;DHT22;23223;51.006;7.610;2023-11-21T04:25:14;7.00;99.90
37340;DHT22;23223;51.006;7.610;2023-11-21T04:27:40;6.90;99.90
37340;DHT22;23223;51.006;7.610;2023-11-21T04:30:09;6.90;99.90
37340;DHT22;23223;51.006;7.610;2023-11-21T04:32:35;6.80;99.90
37340;DHT22;23223;51.006;7.610;2023-11-21T04:35:01;6.80;99.90
37340;DHT22;23223;51.006;7.610;2023-11-21T04:37:26;6.80;99.90
37340;DHT22;23223;51.006;7.610;2023-11-21T04:39:52;6.80;99.90
37340;DHT22;23223;51.006;7.610;2023-11-21T04:42:17;6.70;99.90
37340;DHT22;23223;51.006;7.610;2023-11-21T04:44:43;6.70;99.90
37340;DHT22;23223;51.006;7.610;2023-11-21T04:47:09;6.70;99.90
37340;DHT22;23223;51.006;7.610;2023-11-21T04:49:35;6.70;99.90
37340;DHT22;23223;51.006;7.610;2023-11-21T04:52:01;6.70;99.90
37340;DHT22;23223;51.006;7.610;2023-11-21T04:54:27;6.60;99.90
37340;DHT22;23223;51.006;7.610;2023-11-21T04:56:52;6.50;99.90
37340;DHT22;23223;51.006;7.610;2023-11-21T04:59:18;6.60;99.90
37340;DHT22;23223;51.006;7.610;2023-11-21T05:01:44;6.70;99.90
37340;DHT22;23223;51.006;7.610;2023-11-21T05:04:09;6.90;99.90
37340;DHT22;23223;51.006;7.610;2023-11-21T05:06:35;7.00;99.90
37340;DHT22;23223;51.006;7.610;2023-11-21T05:09:00;7.10;99.90
37340;DHT22;23223;51.006;7.610;2023-11-21T05:11:27;7.00;99.90
37340;DHT22;23223;51.006;7.610;2023-11-21T05:13:53;6.90;99.90
37340;DHT22;23223;51.006;7.610;2023-11-21T05:16:21;6.80;99.90
37340;DHT22;23223;51.006;7.610;2023-11-21T05:18:47;6.70;99.90
37340;DHT22;23223;51.006;7.610;2023-11-21T05:21:13;6.70;99.90
37340;DHT22;23223;51.006;7.610;2023-11-21T05:23:40;6.60;99.90
37340;DHT22;23223;51.006;7.610;2023-11-21T05:26:05;6.60;99.90
37340;DHT22;23223;51.006;7.610;2023-11-21T05:28:31;6.80;99.90
37340;DHT22;23223;51.006;7.610;2023-11-21T05:30:57;7.00;99.90
37340;DHT22;23223;51.006;7.610;2023-11-21T05:33:23;7.20;99.90
37340;DHT22;23223;51.006;7.610;2023-11-21T05:35:48;7.40;99.90
37340;DHT22;23223;51.006;7.610;2023-11-21T05:38:14;7.30;99.90
37340;DHT22;23223;51.006;7.610;2023-11-21T05:40:40;7.30;99.90
37340;DHT22;23223;51.006;7.610;2023-11-21T05:43:06;7.10;99.90
37340;DHT22;23223;51.006;7.610;2023-11-21T05:45:32;7.00;99.90
37340;DHT22;23223;51.006;7.610;2023-11-21T05:47:58;6.90;99.90
37340;DHT22;23223;51.006;7.610;2023-11-21T05:50:24;7.00;99.90
37340;DHT22;23223;51.006;7.610;2023-11-21T05:52:50;7.20;99.90
37340;DHT22;23223;51.006;7.610;2023-11-21T05:55:15;7.20;99.90
37340;DHT22;23223;51.006;7.610;2023-11-21T05:57:43;7.20;99.90
37340;DHT22;23223;51.006;7.610;2023-11-21T06:00:12;7.10;99.90
37340;DHT22;23223;51.006;7.610;2023-11-21T06:02:51;7.10;99.90
37340;DHT22;23223;51.006;7.610;2023-11-21T06:05:19;7.20;99.90
37340;DHT22;23223;51.006;7.610;2023-11-21T06:07:46;7.20;99.90
37340;DHT22;23223;51.006;7.610;2023-11-21T06:10:12;7.10;99.90
37340;DHT22;23223;51.006;7.610;2023-11-21T06:12:43;7.00;99.90
37340;DHT22;23223;51.006;7.610;2023-11-21T06:15:09;6.80;99.90
37340;DHT22;23223;51.006;7.610;2023-11-21T06:17:39;6.70;99.90
37340;DHT22;23223;51.006;7.610;2023-11-21T06:20:09;6.70;99.90
37340;DHT22;23223;51.006;7.610;2023-11-21T06:22:38;6.60;99.90
37340;DHT22;23223;51.006;7.610;2023-11-21T06:25:05;6.60;99.90
37340;DHT22;23223;51.006;7.610;2023-11-21T06:27:39;6.50;99.90
37340;DHT22;23223;51.006;7.610;2023-11-21T06:30:05;6.40;99.90
37340;DHT22;23223;51.006;7.610;2023-11-21T06:32:35;6.70;99.90
37340;DHT22;23223;51.006;7.610;2023-11-21T06:35:04;6.90;99.90
37340;DHT22;23223;51.006;7.610;2023-11-21T06:37:31;7.10;99.90
37340;DHT22;23223;51.006;7.610;2023-11-21T06:39:57;7.30;99.90
37340;DHT22;23223;51.006;7.610;2023-11-21T06:42:23;7.40;99.90
37340;DHT22;23223;51.006;7.610;2023-11-21T06:44:50;7.30;99.90
37340;DHT22;23223;51.006;7.610;2023-11-21T06:47:19;7.10;99.90
37340;DHT22;23223;51.006;7.610;2023-11-21T06:49:52;7.00;99.90
37340;DHT22;23223;51.006;7.610;2023-11-21T06:52:18;6.80;99.90
37340;DHT22;23223;51.006;7.610;2023-11-21T06:54:44;6.70;99.90
37340;DHT22;23223;51.006;7.610;2023-11-21T06:57:11;6.80;99.90
37340;DHT22;23223;51.006;7.610;2023-11-21T06:59:37;6.90;99.90
37340;DHT22;23223;51.006;7.610;2023-11-21T07:02:03;6.90;99.90
37340;DHT22;23223;51.006;7.610;2023-11-21T07:04:30;7.00;99.90
37340;DHT22;23223;51.006;7.610;2023-11-21T07:06:55;7.00;99.90
37340;DHT22;23223;51.006;7.610;2023-11-21T07:09:21;7.00;99.90
37340;DHT22;23223;51.006;7.610;2023-11-21T07:11:48;7.00;99.90
37340;DHT22;23223;51.006;7.610;2023-11-21T07:14:14;6.90;99.90
37340;DHT22;23223;51.006;7.610;2023-11-21T07:16:40;6.90;99.90
37340;DHT22;23223;51.006;7.610;2023-11-21T07:19:06;7.00;99.90
37340;DHT22;23223;51.006;7.610;2023-11-21T07:21:33;7.00;99.90
37340;DHT22;23223;51.006;7.610;2023-11-21T07:24:00;7.10;99.90
37340;DHT22;23223;51.006;7.610;2023-11-21T07:26:26;7.20;99.90
37340;DHT22;23223;51.006;7.610;2023-11-21T07:28:52;7.20;99.90
37340;DHT22;23223;51.006;7.610;2023-11-21T07:31:18;7.10;99.90
37340;DHT22;23223;51.006;7.610;2023-11-21T07:33:46;7.10;99.90
37340;DHT22;23223;51.006;7.610;2023-11-21T07:36:14;7.00;99.90
37340;DHT22;23223;51.006;7.610;2023-11-21T07:38:40;7.00;99.90
37340;DHT22;23223;51.006;7.610;2023-11-21T07:41:06;7.20;99.90
37340;DHT22;23223;51.006;7.610;2023-11-21T07:43:34;7.30;99.90
37340;DHT22;23223;51.006;7.610;2023-11-21T07:46:04;7.50;99.90
37340;DHT22;23223;51.006;7.610;2023-11-21T07:48:30;7.70;99.90
37340;DHT22;23223;51.006;7.610;2023-11-21T07:50:57;7.80;99.90
37340;DHT22;23223;51.006;7.610;2023-11-21T07:53:24;7.90;99.90
37340;DHT22;23223;51.006;7.610;2023-11-21T07:55:51;8.00;99.90
37340;DHT22;23223;51.006;7.610;2023-11-21T07:58:16;8.00;99.90
37340;DHT22;23223;51.006;7.610;2023-11-21T08:00:42;7.80;99.90
37340;DHT22;23223;51.006;7.610;2023-11-21T08:03:07;7.80;99.90
37340;DHT22;23223;51.006;7.610;2023-11-21T08:05:33;7.60;99.90
37340;DHT22;23223;51.006;7.610;2023-11-21T08:07:58;7.60;99.90
37340;DHT22;23223;51.006;7.610;2023-11-21T08:10:24;7.50;99.90
37340;DHT22;23223;51.006;7.610;2023-11-21T08:12:50;7.40;99.90
37340;DHT22;23223;51.006;7.610;2023-11-21T08:15:16;7.40;99.90
37340;DHT22;23223;51.006;7.610;2023-11-21T08:17:41;7.40;99.90
37340;DHT22;23223;51.006;7.610;2023-11-21T08:20:07;7.40;99.90
37340;DHT22;23223;51.006;7.610;2023-11-21T08:22:34;7.40;99.90
37340;DHT22;23223;51.006;7.610;2023-11-21T08:24:59;7.50;99.90
37340;DHT22;23223;51.006;7.610;2023-11-21T08:27:25;7.70;99.90
37340;DHT22;23223;51.006;7.610;2023-11-21T08:29:51;7.90;99.90
37340;DHT22;23223;51.006;7.610;2023-11-21T08:32:18;8.00;99.90
37340;DHT22;23223;51.006;7.610;2023-11-21T08:34:43;8.10;99.90
37340;DHT22;23223;51.006;7.610;2023-11-21T08:37:10;8.10;99.90
37340;DHT22;23223;51.006;7.610;2023-11-21T08:39:39;8.10;99.90
37340;DHT22;23223;51.006;7.610;2023-11-21T08:42:07;8.10;99.90
37340;DHT22;23223;51.006;7.610;2023-11-21T08:44:33;8.20;99.90
37340;DHT22;23223;51.006;7.610;2023-11-21T08:46:59;8.30;99.90
37340;DHT22;23223;51.006;7.610;2023-11-21T08:49:24;8.40;99.90
37340;DHT22;23223;51.006;7.610;2023-11-21T08:51:53;8.40;99.90
37340;DHT22;23223;51.006;7.610;2023-11-21T08:54:21;8.40;99.90
37340;DHT22;23223;51.006;7.610;2023-11-21T08:56:46;8.30;99.90
37340;DHT22;23223;51.006;7.610;2023-11-21T08:59:13;8.20;99.90
37340;DHT22;23223;51.006;7.610;2023-11-21T09:01:39;8.20;99.90
37340;DHT22;23223;51.006;7.610;2023-11-21T09:04:05;8.10;99.90
37340;DHT22;23223;51.006;7.610;2023-11-21T09:06:31;8.20;99.90
37340;DHT22;23223;51.006;7.610;2023-11-21T09:08:56;8.40;99.90
37340;DHT22;23223;51.006;7.610;2023-11-21T09:11:22;8.50;99.90
37340;DHT22;23223;51.006;7.610;2023-11-21T09:13:52;8.60;99.90
37340;DHT22;23223;51.006;7.610;2023-11-21T09:16:18;8.60;99.90
37340;DHT22;23223;51.006;7.610;2023-11-21T09:18:44;8.70;99.90
37340;DHT22;23223;51.006;7.610;2023-11-21T09:21:10;8.90;99.90
37340;DHT22;23223;51.006;7.610;2023-11-21T09:23:36;8.90;99.90
37340;DHT22;23223;51.006;7.610;2023-11-21T09:26:01;8.90;99.90
37340;DHT22;23223;51.006;7.610;2023-11-21T09:28:27;8.90;99.90
37340;DHT22;23223;51.006;7.610;2023-11-21T09:30:56;9.00;99.90
37340;DHT22;23223;51.006;7.610;2023-11-21T09:33:21;8.90;99.90
37340;DHT22;23223;51.006;7.610;2023-11-21T09:35:50;8.80;99.90
37340;DHT22;23223;51.006;7.610;2023-11-21T09:38:16;8.80;99.90
37340;DHT22;23223;51.006;7.610;2023-11-21T09:40:42;8.90;99.90
37340;DHT22;23223;51.006;7.610;2023-11-21T09:43:16;8.90;99.90
37340;DHT22;23223;51.006;7.610;2023-11-21T09:45:45;9.00;99.90
37340;DHT22;23223;51.006;7.610;2023-11-21T09:48:13;9.00;99.90
37340;DHT22;23223;51.006;7.610;2023-11-21T09:50:41;9.00;99.90
37340;DHT22;23223;51.006;7.610;2023-11-21T09:53:20;9.20;99.90
37340;DHT22;23223;51.006;7.610;2023-11-21T09:55:53;9.60;99.90
37340;DHT22;23223;51.006;7.610;2023-11-21T09:58:19;9.80;99.90
37340;DHT22;23223;51.006;7.610;2023-11-21T10:00:48;9.90;99.90
37340;DHT22;23223;51.006;7.610;2023-11-21T10:03:14;9.90;99.90
37340;DHT22;23223;51.006;7.610;2023-11-21T10:05:43;10.00;99.90
37340;DHT22;23223;51.006;7.610;2023-11-21T10:08:11;9.90;99.90
37340;DHT22;23223;51.006;7.610;2023-11-21T10:10:38;9.90;99.90
37340;DHT22;23223;51.006;7.610;2023-11-21T10:13:06;9.90;99.90
37340;DHT22;23223;51.006;7.610;2023-11-21T10:15:34;10.10;99.90
37340;DHT22;23223;51.006;7.610;2023-11-21T10:18:05;10.10;99.90
37340;DHT22;23223;51.006;7.610;2023-11-21T10:20:33;10.20;99.90
37340;DHT22;23223;51.006;7.610;2023-11-21T10:23:03;10.30;99.90
37340;DHT22;23223;51.006;7.610;2023-11-21T10:25:30;10.20;99.90
37340;DHT22;23223;51.006;7.610;2023-11-21T10:28:01;10.10;99.90
37340;DHT22;23223;51.006;7.610;2023-11-21T10:30:37;10.10;99.90
37340;DHT22;23223;51.006;7.610;2023-11-21T10:33:07;10.10;99.90
37340;DHT22;23223;51.006;7.610;2023-11-21T10:35:46;10.20;99.90
37340;DHT22;23223;51.006;7.610;2023-11-21T10:38:16;10.20;99.90
37340;DHT22;23223;51.006;7.610;2023-11-21T10:40:42;10.10;99.90
37340;DHT22;23223;51.006;7.610;2023-11-21T10:43:10;10.10;99.90
37340;DHT22;23223;51.006;7.610;2023-11-21T10:45:40;10.10;99.90
37340;DHT22;23223;51.006;7.610;2023-11-21T10:48:06;10.00;99.90
37340;DHT22;23223;51.006;7.610;2023-11-21T10:50:43;10.00;99.90
37340;DHT22;23223;51.006;7.610;2023-11-21T10:53:09;10.00;99.90
37340;DHT22;23223;51.006;7.610;2023-11-21T10:55:37;9.90;99.90
37340;DHT22;23223;51.006;7.610;2023-11-21T10:58:03;10.00;99.90
37340;DHT22;23223;51.006;7.610;2023-11-21T11:00:31;10.10;99.90
37340;DHT22;23223;51.006;7.610;2023-11-21T11:02:57;10.40;99.90
37340;DHT22;23223;51.006;7.610;2023-11-21T11:05:25;10.50;99.90
37340;DHT22;23223;51.006;7.610;2023-11-21T11:08:05;10.60;99.90
37340;DHT22;23223;51.006;7.610;2023-11-21T11:10:31;10.80;99.90
37340;DHT22;23223;51.006;7.610;2023-11-21T11:12:57;10.90;99.90
37340;DHT22;23223;51.006;7.610;2023-11-21T11:15:24;11.00;99.90
37340;DHT22;23223;51.006;7.610;2023-11-21T11:17:50;11.00;99.90
37340;DHT22;23223;51.006;7.610;2023-11-21T11:20:16;11.10;99.90
37340;DHT22;23223;51.006;7.610;2023-11-21T11:28:10;11.10;99.90
37340;DHT22;23223;51.006;7.610;2023-11-21T11:30:41;11.00;99.90
37340;DHT22;23223;51.006;7.610;2023-11-21T11:38:21;10.80;99.90
37340;DHT22;23223;51.006;7.610;2023-11-21T11:40:52;10.80;99.90
37340;DHT22;23223;51.006;7.610;2023-11-21T11:43:27;10.70;99.90
37340;DHT22;23223;51.006;7.610;2023-11-21T11:45:57;10.90;99.90
37340;DHT22;23223;51.006;7.610;2023-11-21T11:48:24;10.90;99.90
37340;DHT22;23223;51.006;7.610;2023-11-21T11:51:10;10.90;99.90
37340;DHT22;23223;51.006;7.610;2023-11-21T11:53:41;11.00;99.90
37340;DHT22;23223;51.006;7.610;2023-11-21T11:56:33;11.20;99.90
37340;DHT22;23223;51.006;7.610;2023-11-21T11:59:04;11.40;99.90
37340;DHT22;23223;51.006;7.610;2023-11-21T12:01:33;11.70;99.90
37340;DHT22;23223;51.006;7.610;2023-11-21T12:06:45;12.30;99.90
37340;DHT22;23223;51.006;7.610;2023-11-21T12:09:19;12.20;99.90
37340;DHT22;23223;51.006;7.610;2023-11-21T12:11:46;12.30;99.90
37340;DHT22;23223;51.006;7.610;2023-11-21T12:14:13;12.20;99.90
37340;DHT22;23223;51.006;7.610;2023-11-21T12:16:39;12.10;99.90
37340;DHT22;23223;51.006;7.610;2023-11-21T12:19:05;11.90;99.90
37340;DHT22;23223;51.006;7.610;2023-11-21T12:21:30;11.70;99.90
37340;DHT22;23223;51.006;7.610;2023-11-21T12:23:57;11.70;99.90
37340;DHT22;23223;51.006;7.610;2023-11-21T12:26:26;11.50;99.90
37340;DHT22;23223;51.006;7.610;2023-11-21T12:28:52;11.40;99.90
37340;DHT22;23223;51.006;7.610;2023-11-21T12:31:21;11.30;99.90
37340;DHT22;23223;51.006;7.610;2023-11-21T12:33:47;11.30;99.90
37340;DHT22;23223;51.006;7.610;2023-11-21T12:36:13;11.30;99.90
37340;DHT22;23223;51.006;7.610;2023-11-21T12:38:38;11.10;99.90
37340;DHT22;23223;51.006;7.610;2023-11-21T12:41:04;11.00;99.90
37340;DHT22;23223;51.006;7.610;2023-11-21T12:43:32;10.90;99.90
37340;DHT22;23223;51.006;7.610;2023-11-21T12:46:10;10.80;99.90
37340;DHT22;23223;51.006;7.610;2023-11-21T12:48:39;10.70;99.90
37340;DHT22;23223;51.006;7.610;2023-11-21T12:51:10;10.90;99.90
37340;DHT22;23223;51.006;7.610;2023-11-21T12:53:37;11.00;99.90
37340;DHT22;23223;51.006;7.610;2023-11-21T12:56:13;11.10;99.90
37340;DHT22;23223;51.006;7.610;2023-11-21T12:58:40;11.10;99.90
37340;DHT22;23223;51.006;7.610;2023-11-21T13:01:10;11.00;99.90
37340;DHT22;23223;51.006;7.610;2023-11-21T13:03:40;10.90;99.90
37340;DHT22;23223;51.006;7.610;2023-11-21T13:06:06;10.80;99.90
37340;DHT22;23223;51.006;7.610;2023-11-21T13:08:33;10.70;99.90
37340;DHT22;23223;51.006;7.610;2023-11-21T13:10:59;10.60;99.90
37340;DHT22;23223;51.006;7.610;2023-11-21T13:13:28;10.50;99.90
37340;DHT22;23223;51.006;7.610;2023-11-21T13:15:56;10.40;99.90
37340;DHT22;23223;51.006;7.610;2023-11-21T13:18:25;10.40;99.90
37340;DHT22;23223;51.006;7.610;2023-11-21T13:20:57;10.40;99.90
37340;DHT22;23223;51.006;7.610;2023-11-21T13:23:23;10.50;99.90
37340;DHT22;23223;51.006;7.610;2023-11-21T13:25:49;10.60;99.90
37340;DHT22;23223;51.006;7.610;2023-11-21T13:28:15;10.60;99.90
37340;DHT22;23223;51.006;7.610;2023-11-21T13:30:41;10.50;99.90
37340;DHT22;23223;51.006;7.610;2023-11-21T13:33:08;10.60;99.90
37340;DHT22;23223;51.006;7.610;2023-11-21T13:35:37;10.60;99.90
37340;DHT22;23223;51.006;7.610;2023-11-21T13:38:14;10.50;99.90
37340;DHT22;23223;51.006;7.610;2023-11-21T13:40:47;10.60;99.90
37340;DHT22;23223;51.006;7.610;2023-11-21T13:43:15;10.70;99.90
37340;DHT22;23223;51.006;7.610;2023-11-21T13:45:42;10.70;99.90
37340;DHT22;23223;51.006;7.610;2023-11-21T13:48:09;10.60;99.90
37340;DHT22;23223;51.006;7.610;2023-11-21T13:50:48;10.30;99.90
37340;DHT22;23223;51.006;7.610;2023-11-21T13:53:21;10.20;99.90
37340;DHT22;23223;51.006;7.610;2023-11-21T13:55:53;10.30;99.90
37340;DHT22;23223;51.006;7.610;2023-11-21T13:58:26;10.20;99.90
37340;DHT22;23223;51.006;7.610;2023-11-21T14:01:12;10.20;99.90
37340;DHT22;23223;51.006;7.610;2023-11-21T14:04:02;10.10;99.90
37340;DHT22;23223;51.006;7.610;2023-11-21T14:06:48;10.00;99.90
37340;DHT22;23223;51.006;7.610;2023-11-21T14:09:19;10.00;99.90
37340;DHT22;23223;51.006;7.610;2023-11-21T14:11:58;9.90;99.90
37340;DHT22;23223;51.006;7.610;2023-11-21T14:14:26;10.00;99.90
37340;DHT22;23223;51.006;7.610;2023-11-21T14:16:53;10.00;99.90
37340;DHT22;23223;51.006;7.610;2023-11-21T14:19:19;10.00;99.90
37340;DHT22;23223;51.006;7.610;2023-11-21T14:21:45;10.00;99.90
37340;DHT22;23223;51.006;7.610;2023-11-21T14:24:12;9.90;99.90
37340;DHT22;23223;51.006;7.610;2023-11-21T14:26:44;9.80;99.90
37340;DHT22;23223;51.006;7.610;2023-11-21T14:29:14;9.80;99.90
37340;DHT22;23223;51.006;7.610;2023-11-21T14:31:43;9.70;99.90
37340;DHT22;23223;51.006;7.610;2023-11-21T14:34:09;9.60;99.90
37340;DHT22;23223;51.006;7.610;2023-11-21T14:36:36;9.50;99.90
37340;DHT22;23223;51.006;7.610;2023-11-21T14:39:09;9.50;99.90
37340;DHT22;23223;51.006;7.610;2023-11-21T14:41:45;9.50;99.90
37340;DHT22;23223;51.006;7.610;2023-11-21T14:44:11;9.60;99.90
37340;DHT22;23223;51.006;7.610;2023-11-21T14:46:38;9.70;99.90
37340;DHT22;23223;51.006;7.610;2023-11-21T14:49:05;9.70;99.90
37340;DHT22;23223;51.006;7.610;2023-11-21T14:51:48;9.60;99.90
37340;DHT22;23223;51.006;7.610;2023-11-21T14:54:31;9.80;99.90
37340;DHT22;23223;51.006;7.610;2023-11-21T14:57:10;9.70;99.90
37340;DHT22;23223;51.006;7.610;2023-11-21T14:59:44;9.80;99.90
37340;DHT22;23223;51.006;7.610;2023-11-21T15:02:12;9.90;99.90
37340;DHT22;23223;51.006;7.610;2023-11-21T15:04:43;10.20;99.90
37340;DHT22;23223;51.006;7.610;2023-11-21T15:07:09;10.20;99.90
37340;DHT22;23223;51.006;7.610;2023-11-21T15:09:36;10.00;99.90
37340;DHT22;23223;51.006;7.610;2023-11-21T15:12:11;9.90;99.90
37340;DHT22;23223;51.006;7.610;2023-11-21T15:14:50;9.80;99.90
37340;DHT22;23223;51.006;7.610;2023-11-21T15:17:20;9.90;99.90
37340;DHT22;23223;51.006;7.610;2023-11-21T15:19:50;9.80;99.90
37340;DHT22;23223;51.006;7.610;2023-11-21T15:22:16;9.90;99.90
37340;DHT22;23223;51.006;7.610;2023-11-21T15:24:42;9.90;99.90
37340;DHT22;23223;51.006;7.610;2023-11-21T15:27:11;9.70;99.90
37340;DHT22;23223;51.006;7.610;2023-11-21T15:29:38;9.40;99.90
37340;DHT22;23223;51.006;7.610;2023-11-21T15:32:05;9.30;99.90
37340;DHT22;23223;51.006;7.610;2023-11-21T15:34:32;9.20;99.90
37340;DHT22;23223;51.006;7.610;2023-11-21T15:36:58;9.00;99.90
37340;DHT22;23223;51.006;7.610;2023-11-21T15:39:23;8.90;99.90
37340;DHT22;23223;51.006;7.610;2023-11-21T15:41:54;8.80;99.90
37340;DHT22;23223;51.006;7.610;2023-11-21T15:44:19;8.90;99.90
37340;DHT22;23223;51.006;7.610;2023-11-21T15:46:45;8.80;99.90
37340;DHT22;23223;51.006;7.610;2023-11-21T15:49:11;8.70;99.90
37340;DHT22;23223;51.006;7.610;2023-11-21T15:51:45;8.70;99.90
37340;DHT22;23223;51.006;7.610;2023-11-21T15:54:23;8.60;99.90
37340;DHT22;23223;51.006;7.610;2023-11-21T15:56:51;8.60;99.90
37340;DHT22;23223;51.006;7.610;2023-11-21T15:59:24;8.70;99.90